METAR metoinfo z LKNA (Náměšť nad Oslavou

Orig link LKNA zde

 

LKNA 200600Z 26006KT CAVOK 00/M03 Q1022 NOSIG RMK BLU BLU

 

 

Permanent link to this article: http://www.airfly.cz/2018/06/26/metar-metoinfo-z-lkna-namest-nad-oslavou/

Napsat komentář